Providence, Rhode Island
Traffic Map
Current Weather Conditions
Providence, Rhode Island
Few Clouds
Few Clouds
18°
Feels Like: 18°
Wind Chill: 18° Ceiling: Unl
Heat Index: 18° Visibility: 10mi
Dew Point: 13° Wind: 6mph
Humidity: 72% Direction: 290° (WNW)
Pressure: 30in Gusts: 0mph
Raw Report DataKPVD 261051Z 29005KT 10SM FEW100 FEW300 18/13 A3000 RMK AO2 SLP156 T01780128
Traffic Incident Summary
Active as of:
Severity:
Category:
InformationThere was an issue retrieving the traffic information for this location. Please try a different location or try again shortly.
Advertisements
Track Severe Weather on mobile